sensor_id;sensor_type;location;lat;lon;timestamp;temperature;humidity
68648;SHT31;55632;51.962;16.116;2023-06-26T00:04:30;17.00;78.09
68648;SHT31;55632;51.962;16.116;2023-06-26T00:09:32;16.92;78.18
68648;SHT31;55632;51.962;16.116;2023-06-26T00:14:32;16.80;78.52
68648;SHT31;55632;51.962;16.116;2023-06-26T00:19:33;16.66;79.03
68648;SHT31;55632;51.962;16.116;2023-06-26T00:24:34;16.60;79.27
68648;SHT31;55632;51.962;16.116;2023-06-26T00:29:35;16.56;79.40
68648;SHT31;55632;51.962;16.116;2023-06-26T00:34:36;16.52;79.35
68648;SHT31;55632;51.962;16.116;2023-06-26T00:39:37;16.48;79.31
68648;SHT31;55632;51.962;16.116;2023-06-26T00:44:37;16.45;79.41
68648;SHT31;55632;51.962;16.116;2023-06-26T00:49:38;16.39;79.50
68648;SHT31;55632;51.962;16.116;2023-06-26T00:54:39;16.36;79.75
68648;SHT31;55632;51.962;16.116;2023-06-26T00:59:40;16.38;80.00
68648;SHT31;55632;51.962;16.116;2023-06-26T01:04:41;16.38;80.20
68648;SHT31;55632;51.962;16.116;2023-06-26T01:09:47;16.38;80.37
68648;SHT31;55632;51.962;16.116;2023-06-26T01:14:49;16.33;80.65
68648;SHT31;55632;51.962;16.116;2023-06-26T01:19:52;16.35;80.88
68648;SHT31;55632;51.962;16.116;2023-06-26T01:25:21;16.38;81.07
68648;SHT31;55632;51.962;16.116;2023-06-26T01:30:24;16.44;81.20
68648;SHT31;55632;51.962;16.116;2023-06-26T01:35:26;16.48;81.35
68648;SHT31;55632;51.962;16.116;2023-06-26T01:40:27;16.51;81.52
68648;SHT31;55632;51.962;16.116;2023-06-26T01:45:31;16.56;81.74
68648;SHT31;55632;51.962;16.116;2023-06-26T01:50:33;16.59;81.88
68648;SHT31;55632;51.962;16.116;2023-06-26T01:55:46;16.62;82.09
68648;SHT31;55632;51.962;16.116;2023-06-26T02:00:50;16.67;82.26
68648;SHT31;55632;51.962;16.116;2023-06-26T02:05:51;16.67;82.42
68648;SHT31;55632;51.962;16.116;2023-06-26T02:10:52;16.69;82.47
68648;SHT31;55632;51.962;16.116;2023-06-26T02:15:55;16.71;82.62
68648;SHT31;55632;51.962;16.116;2023-06-26T02:21:08;16.70;82.68
68648;SHT31;55632;51.962;16.116;2023-06-26T02:26:10;16.69;82.73
68648;SHT31;55632;51.962;16.116;2023-06-26T02:31:17;16.67;82.83
68648;SHT31;55632;51.962;16.116;2023-06-26T02:36:17;16.67;82.90
68648;SHT31;55632;51.962;16.116;2023-06-26T02:41:18;16.69;83.04
68648;SHT31;55632;51.962;16.116;2023-06-26T02:46:20;16.69;83.11
68648;SHT31;55632;51.962;16.116;2023-06-26T02:51:21;16.70;83.14
68648;SHT31;55632;51.962;16.116;2023-06-26T02:56:22;16.74;83.22
68648;SHT31;55632;51.962;16.116;2023-06-26T03:01:30;16.79;83.37
68648;SHT31;55632;51.962;16.116;2023-06-26T03:06:33;16.83;83.36
68648;SHT31;55632;51.962;16.116;2023-06-26T03:11:34;16.84;83.24
68648;SHT31;55632;51.962;16.116;2023-06-26T03:16:38;16.87;83.32
68648;SHT31;55632;51.962;16.116;2023-06-26T03:21:41;16.95;83.44
68648;SHT31;55632;51.962;16.116;2023-06-26T03:26:42;17.31;83.62
68648;SHT31;55632;51.962;16.116;2023-06-26T03:31:45;17.76;83.28
68648;SHT31;55632;51.962;16.116;2023-06-26T03:36:46;18.29;82.69
68648;SHT31;55632;51.962;16.116;2023-06-26T03:41:47;18.87;81.80
68648;SHT31;55632;51.962;16.116;2023-06-26T03:46:48;19.33;80.85
68648;SHT31;55632;51.962;16.116;2023-06-26T03:51:51;19.67;80.08
68648;SHT31;55632;51.962;16.116;2023-06-26T03:56:52;20.12;79.46
68648;SHT31;55632;51.962;16.116;2023-06-26T04:01:56;20.41;78.51
68648;SHT31;55632;51.962;16.116;2023-06-26T04:06:57;20.72;77.87
68648;SHT31;55632;51.962;16.116;2023-06-26T04:11:59;20.85;77.17
68648;SHT31;55632;51.962;16.116;2023-06-26T04:17:00;20.85;76.87
68648;SHT31;55632;51.962;16.116;2023-06-26T04:22:03;20.95;76.48
68648;SHT31;55632;51.962;16.116;2023-06-26T04:27:05;21.02;76.29
68648;SHT31;55632;51.962;16.116;2023-06-26T04:32:09;21.54;75.73
68648;SHT31;55632;51.962;16.116;2023-06-26T04:37:12;22.14;74.77
68648;SHT31;55632;51.962;16.116;2023-06-26T04:42:18;22.65;73.47
68648;SHT31;55632;51.962;16.116;2023-06-26T04:47:19;23.10;72.36
68648;SHT31;55632;51.962;16.116;2023-06-26T04:52:20;23.58;71.16
68648;SHT31;55632;51.962;16.116;2023-06-26T04:57:27;24.02;70.09
68648;SHT31;55632;51.962;16.116;2023-06-26T05:02:27;24.43;69.06
68648;SHT31;55632;51.962;16.116;2023-06-26T05:07:33;24.78;67.23
68648;SHT31;55632;51.962;16.116;2023-06-26T05:12:37;25.19;66.09
68648;SHT31;55632;51.962;16.116;2023-06-26T05:17:43;25.47;65.44
68648;SHT31;55632;51.962;16.116;2023-06-26T05:22:44;25.69;64.80
68648;SHT31;55632;51.962;16.116;2023-06-26T05:27:45;25.96;64.24
68648;SHT31;55632;51.962;16.116;2023-06-26T05:32:47;26.27;63.26
68648;SHT31;55632;51.962;16.116;2023-06-26T05:37:50;26.47;62.21
68648;SHT31;55632;51.962;16.116;2023-06-26T05:42:52;26.59;61.74
68648;SHT31;55632;51.962;16.116;2023-06-26T05:47:53;26.80;60.70
68648;SHT31;55632;51.962;16.116;2023-06-26T05:52:54;27.03;60.03
68648;SHT31;55632;51.962;16.116;2023-06-26T05:57:58;27.27;59.26
68648;SHT31;55632;51.962;16.116;2023-06-26T06:03:02;27.49;58.89
68648;SHT31;55632;51.962;16.116;2023-06-26T06:08:12;27.66;58.02
68648;SHT31;55632;51.962;16.116;2023-06-26T06:13:13;27.83;57.78
68648;SHT31;55632;51.962;16.116;2023-06-26T06:18:20;28.04;56.99
68648;SHT31;55632;51.962;16.116;2023-06-26T06:23:24;28.27;56.54
68648;SHT31;55632;51.962;16.116;2023-06-26T06:28:25;28.51;55.68
68648;SHT31;55632;51.962;16.116;2023-06-26T06:33:28;28.76;54.86
68648;SHT31;55632;51.962;16.116;2023-06-26T06:38:29;28.99;54.09
68648;SHT31;55632;51.962;16.116;2023-06-26T06:43:30;29.18;53.34
68648;SHT31;55632;51.962;16.116;2023-06-26T06:48:31;29.35;53.14
68648;SHT31;55632;51.962;16.116;2023-06-26T06:53:36;29.55;52.05
68648;SHT31;55632;51.962;16.116;2023-06-26T06:58:39;29.69;51.30
68648;SHT31;55632;51.962;16.116;2023-06-26T07:03:45;29.87;50.20
68648;SHT31;55632;51.962;16.116;2023-06-26T07:08:46;30.04;49.86
68648;SHT31;55632;51.962;16.116;2023-06-26T07:13:47;30.17;49.16
68648;SHT31;55632;51.962;16.116;2023-06-26T07:18:48;30.21;49.04
68648;SHT31;55632;51.962;16.116;2023-06-26T07:23:50;30.38;48.71
68648;SHT31;55632;51.962;16.116;2023-06-26T07:28:51;30.53;47.71
68648;SHT31;55632;51.962;16.116;2023-06-26T07:33:51;30.55;47.48
68648;SHT31;55632;51.962;16.116;2023-06-26T07:38:52;30.58;46.99
68648;SHT31;55632;51.962;16.116;2023-06-26T07:43:53;30.66;46.94
68648;SHT31;55632;51.962;16.116;2023-06-26T07:48:54;30.80;46.74
68648;SHT31;55632;51.962;16.116;2023-06-26T07:53:55;30.93;46.62
68648;SHT31;55632;51.962;16.116;2023-06-26T07:58:58;30.98;45.55
68648;SHT31;55632;51.962;16.116;2023-06-26T08:04:03;31.12;44.99
68648;SHT31;55632;51.962;16.116;2023-06-26T08:09:08;31.17;43.71
68648;SHT31;55632;51.962;16.116;2023-06-26T08:14:08;31.31;44.00
68648;SHT31;55632;51.962;16.116;2023-06-26T08:19:12;31.21;44.01
68648;SHT31;55632;51.962;16.116;2023-06-26T08:24:19;30.77;44.86
68648;SHT31;55632;51.962;16.116;2023-06-26T08:29:20;31.01;44.78
68648;SHT31;55632;51.962;16.116;2023-06-26T08:34:21;31.29;45.05
68648;SHT31;55632;51.962;16.116;2023-06-26T08:39:21;31.22;44.30
68648;SHT31;55632;51.962;16.116;2023-06-26T08:44:22;30.90;44.39
68648;SHT31;55632;51.962;16.116;2023-06-26T08:49:47;30.79;44.23
68648;SHT31;55632;51.962;16.116;2023-06-26T08:54:56;31.11;43.10
68648;SHT31;55632;51.962;16.116;2023-06-26T08:59:58;31.43;42.86
68648;SHT31;55632;51.962;16.116;2023-06-26T09:05:00;31.77;43.25
68648;SHT31;55632;51.962;16.116;2023-06-26T09:10:05;31.97;42.63
68648;SHT31;55632;51.962;16.116;2023-06-26T09:15:18;31.97;42.52
68648;SHT31;55632;51.962;16.116;2023-06-26T09:20:19;32.08;42.71
68648;SHT31;55632;51.962;16.116;2023-06-26T09:25:21;32.11;41.34
68648;SHT31;55632;51.962;16.116;2023-06-26T09:30:25;32.25;40.84
68648;SHT31;55632;51.962;16.116;2023-06-26T09:35:27;32.35;40.70
68648;SHT31;55632;51.962;16.116;2023-06-26T09:40:28;32.18;40.85
68648;SHT31;55632;51.962;16.116;2023-06-26T09:45:31;31.72;41.62
68648;SHT31;55632;51.962;16.116;2023-06-26T09:50:33;31.29;42.70
68648;SHT31;55632;51.962;16.116;2023-06-26T09:55:39;31.01;43.07
68648;SHT31;55632;51.962;16.116;2023-06-26T10:00:44;30.70;44.08
68648;SHT31;55632;51.962;16.116;2023-06-26T10:05:46;30.58;44.59
68648;SHT31;55632;51.962;16.116;2023-06-26T10:10:48;30.45;45.25
68648;SHT31;55632;51.962;16.116;2023-06-26T10:15:53;30.46;45.77
68648;SHT31;55632;51.962;16.116;2023-06-26T10:20:56;30.76;44.22
68648;SHT31;55632;51.962;16.116;2023-06-26T10:25:59;31.21;43.85
68648;SHT31;55632;51.962;16.116;2023-06-26T10:31:03;31.55;41.79
68648;SHT31;55632;51.962;16.116;2023-06-26T10:36:15;31.56;41.85
68648;SHT31;55632;51.962;16.116;2023-06-26T10:41:19;31.52;40.73
68648;SHT31;55632;51.962;16.116;2023-06-26T10:46:21;31.43;42.08
68648;SHT31;55632;51.962;16.116;2023-06-26T10:51:22;31.21;42.57
68648;SHT31;55632;51.962;16.116;2023-06-26T11:01:45;31.15;44.22
68648;SHT31;55632;51.962;16.116;2023-06-26T11:06:47;31.27;43.54
68648;SHT31;55632;51.962;16.116;2023-06-26T11:16:55;31.32;43.58
68648;SHT31;55632;51.962;16.116;2023-06-26T11:22:02;31.58;43.30
68648;SHT31;55632;51.962;16.116;2023-06-26T11:27:10;31.89;40.84
68648;SHT31;55632;51.962;16.116;2023-06-26T11:32:10;31.87;40.33
68648;SHT31;55632;51.962;16.116;2023-06-26T11:37:11;31.94;40.87
68648;SHT31;55632;51.962;16.116;2023-06-26T11:42:12;32.15;41.05
68648;SHT31;55632;51.962;16.116;2023-06-26T11:47:17;32.29;41.31
68648;SHT31;55632;51.962;16.116;2023-06-26T11:52:19;32.48;40.56
68648;SHT31;55632;51.962;16.116;2023-06-26T11:57:26;32.65;39.91
68648;SHT31;55632;51.962;16.116;2023-06-26T12:02:28;32.73;39.88
68648;SHT31;55632;51.962;16.116;2023-06-26T12:07:29;32.80;39.36
68648;SHT31;55632;51.962;16.116;2023-06-26T12:12:31;32.82;39.77
68648;SHT31;55632;51.962;16.116;2023-06-26T12:17:33;32.53;39.57
68648;SHT31;55632;51.962;16.116;2023-06-26T12:22:37;32.28;40.46
68648;SHT31;55632;51.962;16.116;2023-06-26T12:27:40;32.18;39.97
68648;SHT31;55632;51.962;16.116;2023-06-26T12:32:45;32.01;40.23
68648;SHT31;55632;51.962;16.116;2023-06-26T12:37:47;31.89;41.22
68648;SHT31;55632;51.962;16.116;2023-06-26T12:42:48;32.06;40.89
68648;SHT31;55632;51.962;16.116;2023-06-26T12:47:49;32.24;39.52
68648;SHT31;55632;51.962;16.116;2023-06-26T12:52:50;32.45;39.67
68648;SHT31;55632;51.962;16.116;2023-06-26T12:57:58;32.58;38.92
68648;SHT31;55632;51.962;16.116;2023-06-26T13:03:11;32.49;40.24
68648;SHT31;55632;51.962;16.116;2023-06-26T13:08:11;32.35;39.45
68648;SHT31;55632;51.962;16.116;2023-06-26T13:13:13;31.98;39.12
68648;SHT31;55632;51.962;16.116;2023-06-26T13:18:17;31.76;40.25
68648;SHT31;55632;51.962;16.116;2023-06-26T13:23:18;31.89;40.03
68648;SHT31;55632;51.962;16.116;2023-06-26T13:28:22;32.15;39.87
68648;SHT31;55632;51.962;16.116;2023-06-26T13:33:23;32.41;40.15
68648;SHT31;55632;51.962;16.116;2023-06-26T13:38:27;32.65;39.20
68648;SHT31;55632;51.962;16.116;2023-06-26T13:43:28;32.86;38.12
68648;SHT31;55632;51.962;16.116;2023-06-26T13:48:30;32.91;37.94
68648;SHT31;55632;51.962;16.116;2023-06-26T13:53:31;32.99;37.64
68648;SHT31;55632;51.962;16.116;2023-06-26T13:58:46;33.00;37.52
68648;SHT31;55632;51.962;16.116;2023-06-26T14:04:12;32.96;37.51
68648;SHT31;55632;51.962;16.116;2023-06-26T14:09:12;32.75;37.43
68648;SHT31;55632;51.962;16.116;2023-06-26T14:14:19;32.35;37.99
68648;SHT31;55632;51.962;16.116;2023-06-26T14:19:22;31.93;38.83
68648;SHT31;55632;51.962;16.116;2023-06-26T14:24:23;31.52;39.96
68648;SHT31;55632;51.962;16.116;2023-06-26T14:29:26;31.22;40.72
68648;SHT31;55632;51.962;16.116;2023-06-26T14:34:33;31.10;41.42
68648;SHT31;55632;51.962;16.116;2023-06-26T14:39:36;31.37;41.51
68648;SHT31;55632;51.962;16.116;2023-06-26T14:44:38;31.73;39.33
68648;SHT31;55632;51.962;16.116;2023-06-26T14:49:39;31.93;38.60
68648;SHT31;55632;51.962;16.116;2023-06-26T14:54:41;32.07;38.61
68648;SHT31;55632;51.962;16.116;2023-06-26T14:59:42;31.96;39.39
68648;SHT31;55632;51.962;16.116;2023-06-26T15:05:09;31.63;39.69
68648;SHT31;55632;51.962;16.116;2023-06-26T15:10:10;31.72;39.84
68648;SHT31;55632;51.962;16.116;2023-06-26T15:15:10;31.76;40.29
68648;SHT31;55632;51.962;16.116;2023-06-26T15:20:12;31.74;39.59
68648;SHT31;55632;51.962;16.116;2023-06-26T15:25:13;31.89;39.57
68648;SHT31;55632;51.962;16.116;2023-06-26T15:30:14;32.08;39.02
68648;SHT31;55632;51.962;16.116;2023-06-26T15:35:15;32.27;38.70
68648;SHT31;55632;51.962;16.116;2023-06-26T15:40:16;32.18;38.65
68648;SHT31;55632;51.962;16.116;2023-06-26T15:45:17;32.13;38.67
68648;SHT31;55632;51.962;16.116;2023-06-26T15:50:18;31.94;38.84
68648;SHT31;55632;51.962;16.116;2023-06-26T15:55:22;31.77;39.70
68648;SHT31;55632;51.962;16.116;2023-06-26T16:00:23;31.80;40.26
68648;SHT31;55632;51.962;16.116;2023-06-26T16:05:24;31.81;39.97
68648;SHT31;55632;51.962;16.116;2023-06-26T16:10:25;31.79;40.17
68648;SHT31;55632;51.962;16.116;2023-06-26T16:15:27;31.59;40.49
68648;SHT31;55632;51.962;16.116;2023-06-26T16:20:27;31.34;41.17
68648;SHT31;55632;51.962;16.116;2023-06-26T16:25:30;31.07;41.70
68648;SHT31;55632;51.962;16.116;2023-06-26T16:30:33;30.82;42.46
68648;SHT31;55632;51.962;16.116;2023-06-26T16:35:34;30.56;43.78
68648;SHT31;55632;51.962;16.116;2023-06-26T16:40:38;30.49;44.28
68648;SHT31;55632;51.962;16.116;2023-06-26T16:45:40;30.38;44.70
68648;SHT31;55632;51.962;16.116;2023-06-26T16:50:45;30.25;44.96
68648;SHT31;55632;51.962;16.116;2023-06-26T16:55:49;30.11;45.71
68648;SHT31;55632;51.962;16.116;2023-06-26T17:00:55;29.96;46.21
68648;SHT31;55632;51.962;16.116;2023-06-26T17:05:59;29.74;46.79
68648;SHT31;55632;51.962;16.116;2023-06-26T17:11:00;29.61;47.21
68648;SHT31;55632;51.962;16.116;2023-06-26T17:16:01;29.37;47.69
68648;SHT31;55632;51.962;16.116;2023-06-26T17:21:04;29.13;48.49
68648;SHT31;55632;51.962;16.116;2023-06-26T17:26:08;28.89;48.99
68648;SHT31;55632;51.962;16.116;2023-06-26T17:31:09;28.65;49.82
68648;SHT31;55632;51.962;16.116;2023-06-26T17:36:10;28.40;50.11
68648;SHT31;55632;51.962;16.116;2023-06-26T17:41:12;28.17;50.72
68648;SHT31;55632;51.962;16.116;2023-06-26T17:46:13;27.97;51.58
68648;SHT31;55632;51.962;16.116;2023-06-26T17:51:14;27.73;52.69
68648;SHT31;55632;51.962;16.116;2023-06-26T17:56:15;27.44;52.81
68648;SHT31;55632;51.962;16.116;2023-06-26T18:01:16;26.59;56.46
68648;SHT31;55632;51.962;16.116;2023-06-26T18:06:18;25.55;61.54
68648;SHT31;55632;51.962;16.116;2023-06-26T18:11:19;24.58;65.01
68648;SHT31;55632;51.962;16.116;2023-06-26T18:16:35;23.82;67.95
68648;SHT31;55632;51.962;16.116;2023-06-26T18:21:37;23.27;69.79
68648;SHT31;55632;51.962;16.116;2023-06-26T18:26:39;22.88;71.39
68648;SHT31;55632;51.962;16.116;2023-06-26T18:31:40;22.61;72.49
68648;SHT31;55632;51.962;16.116;2023-06-26T18:36:41;22.37;73.37
68648;SHT31;55632;51.962;16.116;2023-06-26T18:41:42;22.17;74.27
68648;SHT31;55632;51.962;16.116;2023-06-26T18:46:43;21.99;74.60
68648;SHT31;55632;51.962;16.116;2023-06-26T18:51:45;21.85;75.24
68648;SHT31;55632;51.962;16.116;2023-06-26T18:56:46;21.75;76.01
68648;SHT31;55632;51.962;16.116;2023-06-26T19:01:47;21.61;76.53
68648;SHT31;55632;51.962;16.116;2023-06-26T19:06:48;21.49;76.77
68648;SHT31;55632;51.962;16.116;2023-06-26T19:11:49;21.36;77.11
68648;SHT31;55632;51.962;16.116;2023-06-26T19:16:51;21.27;77.43
68648;SHT31;55632;51.962;16.116;2023-06-26T19:21:51;21.27;77.95
68648;SHT31;55632;51.962;16.116;2023-06-26T19:26:52;21.27;78.19
68648;SHT31;55632;51.962;16.116;2023-06-26T19:31:57;21.19;78.56
68648;SHT31;55632;51.962;16.116;2023-06-26T19:37:00;21.09;78.93
68648;SHT31;55632;51.962;16.116;2023-06-26T19:42:01;20.99;79.37
68648;SHT31;55632;51.962;16.116;2023-06-26T19:47:02;20.91;79.73
68648;SHT31;55632;51.962;16.116;2023-06-26T19:52:03;20.82;80.07
68648;SHT31;55632;51.962;16.116;2023-06-26T19:57:04;20.77;80.40
68648;SHT31;55632;51.962;16.116;2023-06-26T20:02:06;20.70;80.72
68648;SHT31;55632;51.962;16.116;2023-06-26T20:07:07;20.61;81.02
68648;SHT31;55632;51.962;16.116;2023-06-26T20:12:08;20.51;81.33
68648;SHT31;55632;51.962;16.116;2023-06-26T20:17:09;20.44;81.60
68648;SHT31;55632;51.962;16.116;2023-06-26T20:22:12;20.32;82.09
68648;SHT31;55632;51.962;16.116;2023-06-26T20:27:13;20.25;82.30
68648;SHT31;55632;51.962;16.116;2023-06-26T20:32:18;20.22;82.62
68648;SHT31;55632;51.962;16.116;2023-06-26T20:37:23;20.19;82.91
68648;SHT31;55632;51.962;16.116;2023-06-26T20:42:24;20.16;83.12
68648;SHT31;55632;51.962;16.116;2023-06-26T20:47:25;20.13;83.32
68648;SHT31;55632;51.962;16.116;2023-06-26T20:52:34;20.08;83.48
68648;SHT31;55632;51.962;16.116;2023-06-26T20:57:35;20.02;83.67
68648;SHT31;55632;51.962;16.116;2023-06-26T21:02:38;19.99;83.93
68648;SHT31;55632;51.962;16.116;2023-06-26T21:07:39;19.99;84.05
68648;SHT31;55632;51.962;16.116;2023-06-26T21:12:40;20.01;84.25
68648;SHT31;55632;51.962;16.116;2023-06-26T21:17:44;19.95;84.49
68648;SHT31;55632;51.962;16.116;2023-06-26T21:22:47;19.94;84.74
68648;SHT31;55632;51.962;16.116;2023-06-26T21:27:48;19.94;84.87
68648;SHT31;55632;51.962;16.116;2023-06-26T21:32:49;19.88;84.96
68648;SHT31;55632;51.962;16.116;2023-06-26T21:37:53;19.84;85.14
68648;SHT31;55632;51.962;16.116;2023-06-26T21:42:58;19.81;85.30
68648;SHT31;55632;51.962;16.116;2023-06-26T21:48:12;19.79;85.33
68648;SHT31;55632;51.962;16.116;2023-06-26T21:53:13;19.75;85.45
68648;SHT31;55632;51.962;16.116;2023-06-26T21:58:14;19.68;85.56
68648;SHT31;55632;51.962;16.116;2023-06-26T22:03:16;19.67;85.71
68648;SHT31;55632;51.962;16.116;2023-06-26T22:08:20;19.64;85.74
68648;SHT31;55632;51.962;16.116;2023-06-26T22:13:22;19.57;85.88
68648;SHT31;55632;51.962;16.116;2023-06-26T22:18:23;19.53;85.90
68648;SHT31;55632;51.962;16.116;2023-06-26T22:23:24;19.45;85.91
68648;SHT31;55632;51.962;16.116;2023-06-26T22:28:24;19.42;85.99
68648;SHT31;55632;51.962;16.116;2023-06-26T22:33:25;19.33;86.12
68648;SHT31;55632;51.962;16.116;2023-06-26T22:38:26;19.25;86.11
68648;SHT31;55632;51.962;16.116;2023-06-26T22:43:33;19.20;86.18
68648;SHT31;55632;51.962;16.116;2023-06-26T22:48:34;19.16;86.31
68648;SHT31;55632;51.962;16.116;2023-06-26T22:53:37;19.09;86.39
68648;SHT31;55632;51.962;16.116;2023-06-26T22:58:38;19.06;86.46
68648;SHT31;55632;51.962;16.116;2023-06-26T23:03:40;19.05;86.57
68648;SHT31;55632;51.962;16.116;2023-06-26T23:08:41;18.98;86.62
68648;SHT31;55632;51.962;16.116;2023-06-26T23:13:42;18.94;86.68
68648;SHT31;55632;51.962;16.116;2023-06-26T23:18:42;18.92;86.85
68648;SHT31;55632;51.962;16.116;2023-06-26T23:23:43;18.91;86.91
68648;SHT31;55632;51.962;16.116;2023-06-26T23:28:46;18.87;86.98
68648;SHT31;55632;51.962;16.116;2023-06-26T23:33:47;18.85;87.01
68648;SHT31;55632;51.962;16.116;2023-06-26T23:38:50;18.84;87.06
68648;SHT31;55632;51.962;16.116;2023-06-26T23:43:51;18.81;87.08
68648;SHT31;55632;51.962;16.116;2023-06-26T23:48:54;18.80;87.20
68648;SHT31;55632;51.962;16.116;2023-06-26T23:53:55;18.74;87.31
68648;SHT31;55632;51.962;16.116;2023-06-26T23:58:56;18.71;87.38
